createdAt,value
2022-11-19T00:04:33.016Z,1001.15
2022-11-19T00:10:55.986Z,1001.13
2022-11-19T00:17:16.004Z,1001.17
2022-11-19T00:23:39.038Z,1001.13
2022-11-19T00:29:59.005Z,1001.09
2022-11-19T00:36:22.039Z,1001.07
2022-11-19T00:42:41.966Z,1001.05
2022-11-19T00:49:04.990Z,1001.07
2022-11-19T00:55:25.065Z,1001.09
2022-11-19T01:01:48.004Z,1001.09
2022-11-19T01:08:07.991Z,1001.13
2022-11-19T01:14:31.178Z,1001.17
2022-11-19T01:20:50.998Z,1001.21
2022-11-19T01:27:13.993Z,1001.21
2022-11-19T01:33:34.002Z,1001.23
2022-11-19T01:39:56.993Z,1001.23
2022-11-19T01:46:16.975Z,1001.21
2022-11-19T01:52:40.024Z,1001.25
2022-11-19T01:58:59.973Z,1001.27
2022-11-19T02:05:23.009Z,1001.31
2022-11-19T02:11:43.011Z,1001.33
2022-11-19T02:18:05.970Z,1001.35
2022-11-19T02:24:25.986Z,1001.38
2022-11-19T02:30:49.025Z,1001.38
2022-11-19T02:37:09.005Z,1001.4
2022-11-19T02:43:31.973Z,1001.42
2022-11-19T02:49:52.027Z,1001.46
2022-11-19T02:56:14.988Z,1001.5
2022-11-19T03:02:35.019Z,1001.48
2022-11-19T03:08:57.996Z,1001.54
2022-11-19T03:15:17.979Z,1001.58
2022-11-19T03:21:40.994Z,1001.66
2022-11-19T03:28:01.028Z,1001.72
2022-11-19T03:34:23.966Z,1001.76
2022-11-19T03:40:44.003Z,1001.8
2022-11-19T03:47:07.017Z,1001.82
2022-11-19T03:53:26.988Z,1001.85
2022-11-19T03:59:50.004Z,1001.89
2022-11-19T04:06:10.025Z,1001.97
2022-11-19T04:12:32.988Z,1002.05
2022-11-19T04:18:53.024Z,1002.11
2022-11-19T04:42:00.027Z,1002.38
2022-11-19T04:48:22.967Z,1002.52
2022-11-19T04:54:42.966Z,1002.54
2022-11-19T05:01:06.049Z,1002.5
2022-11-19T05:07:26.085Z,1002.48
2022-11-19T05:13:49.026Z,1002.54
2022-11-19T05:20:09.161Z,1002.58
2022-11-19T05:26:32.037Z,1002.64
2022-11-19T05:32:52.002Z,1002.66
2022-11-19T05:39:20.358Z,1002.77
2022-11-19T05:45:35.027Z,1002.94
2022-11-19T05:51:57.983Z,1003
2022-11-19T05:58:18.067Z,1003.07
2022-11-19T06:04:41.015Z,1003.21
2022-11-19T06:11:01.101Z,1003.25
2022-11-19T06:17:24.031Z,1003.31
2022-11-19T06:23:44.000Z,1003.37
2022-11-19T06:30:07.004Z,1003.41
2022-11-19T06:36:27.706Z,1003.51
2022-11-19T06:42:51.151Z,1003.54
2022-11-19T06:49:11.464Z,1003.58
2022-11-19T06:55:33.030Z,1003.68
2022-11-19T07:01:53.076Z,1003.78
2022-11-19T07:08:15.978Z,1003.9
2022-11-19T07:14:36.051Z,1003.92
2022-11-19T07:20:59.010Z,1004.03
2022-11-19T07:27:18.973Z,1004.07
2022-11-19T07:33:42.209Z,1004.17
2022-11-19T07:40:02.027Z,1004.25
2022-11-19T07:46:25.008Z,1004.33
2022-11-19T07:52:45.022Z,1004.41
2022-11-19T07:59:07.990Z,1004.47
2022-11-19T08:05:28.032Z,1004.5
2022-11-19T08:11:51.010Z,1004.62
2022-11-19T08:18:11.008Z,1004.72
2022-11-19T08:24:34.019Z,1004.78
2022-11-19T08:30:54.051Z,1004.84
2022-11-19T08:37:17.161Z,1004.82
2022-11-19T08:43:37.013Z,1004.86
2022-11-19T08:50:00.080Z,1004.88
2022-11-19T08:56:19.972Z,1004.94
2022-11-19T09:02:43.086Z,1004.94
2022-11-19T09:09:03.012Z,1004.97
2022-11-19T09:15:26.092Z,1005.01
2022-11-19T09:45:45.009Z,1005.29
2022-11-19T09:52:07.972Z,1005.4
2022-11-19T09:58:28.003Z,1005.59
2022-11-19T10:04:51.018Z,1005.67
2022-11-19T10:11:11.005Z,1005.69
2022-11-19T10:17:34.005Z,1005.72
2022-11-19T10:23:54.004Z,1005.69
2022-11-19T10:30:17.022Z,1005.69
2022-11-19T10:36:37.005Z,1005.78
2022-11-19T10:43:00.112Z,1005.88
2022-11-19T10:49:20.243Z,1005.94
2022-11-19T10:55:42.993Z,1005.96
2022-11-19T11:02:03.007Z,1005.94
2022-11-19T11:08:26.004Z,1005.84
2022-11-19T11:14:46.052Z,1005.86
2022-11-19T11:21:09.025Z,1005.84
2022-11-19T11:27:29.013Z,1005.82
2022-11-19T11:33:52.021Z,1005.86
2022-11-19T11:40:12.030Z,1005.88
2022-11-19T11:46:34.996Z,1005.8
2022-11-19T11:52:54.994Z,1005.78
2022-11-19T11:59:18.240Z,1005.76
2022-11-19T12:05:38.038Z,1005.67
2022-11-19T12:12:01.015Z,1005.63
2022-11-19T12:18:21.056Z,1005.63
2022-11-19T12:24:43.993Z,1005.69
2022-11-19T12:31:04.008Z,1005.72
2022-11-19T12:37:27.034Z,1005.78
2022-11-19T12:43:46.981Z,1005.84
2022-11-19T12:50:10.095Z,1005.84
2022-11-19T12:56:30.028Z,1005.82
2022-11-19T13:02:53.017Z,1005.82
2022-11-19T13:09:13.025Z,1005.8
2022-11-19T13:15:36.001Z,1005.84
2022-11-19T13:21:56.021Z,1005.86
2022-11-19T13:28:18.999Z,1005.86
2022-11-19T13:34:39.036Z,1005.9
2022-11-19T13:41:02.039Z,1005.98
2022-11-19T13:47:22.018Z,1005.96
2022-11-19T13:53:45.135Z,1005.94
2022-11-19T14:00:04.993Z,1005.96
2022-11-19T14:06:27.988Z,1006.02
2022-11-19T14:12:48.052Z,1006.12
2022-11-19T14:19:10.993Z,1006.12
2022-11-19T14:25:31.000Z,1006.1
2022-11-19T14:31:54.022Z,1006.1
2022-11-19T14:54:03.993Z,1006.19
2022-11-19T15:00:26.974Z,1006.29
2022-11-19T15:06:47.013Z,1006.31
2022-11-19T15:13:09.998Z,1006.33
2022-11-19T15:19:30.051Z,1006.35
2022-11-19T15:25:52.995Z,1006.35
2022-11-19T15:32:13.014Z,1006.37
2022-11-19T15:38:35.992Z,1006.37
2022-11-19T15:44:55.980Z,1006.37
2022-11-19T15:51:19.026Z,1006.37
2022-11-19T15:57:39.003Z,1006.33
2022-11-19T16:04:01.998Z,1006.37
2022-11-19T16:10:22.049Z,1006.39
2022-11-19T16:16:44.976Z,1006.41
2022-11-19T16:23:05.001Z,1006.41
2022-11-19T16:29:28.030Z,1006.49
2022-11-19T16:35:52.531Z,1006.49
2022-11-19T16:42:14.240Z,1006.49
2022-11-19T16:48:31.038Z,1006.51
2022-11-19T16:54:54.012Z,1006.57
2022-11-19T17:01:14.060Z,1006.59
2022-11-19T17:07:37.110Z,1006.63
2022-11-19T17:13:56.999Z,1006.66
2022-11-19T17:20:19.994Z,1006.7
2022-11-19T17:26:40.057Z,1006.72
2022-11-19T17:33:03.030Z,1006.76
2022-11-19T17:39:25.452Z,1006.82
2022-11-19T17:45:46.009Z,1006.88
2022-11-19T17:52:05.974Z,1006.96
2022-11-19T17:58:29.071Z,1006.98
2022-11-19T18:04:48.992Z,1007.02
2022-11-19T18:11:11.996Z,1007.02
2022-11-19T18:17:32.057Z,1007.02
2022-11-19T18:23:54.997Z,1006.94
2022-11-19T18:30:15.051Z,1006.98
2022-11-19T18:36:38.282Z,1007.02
2022-11-19T18:42:58.012Z,1007
2022-11-19T18:49:21.346Z,1006.98
2022-11-19T18:55:41.031Z,1006.98
2022-11-19T19:02:04.113Z,1006.96
2022-11-19T19:08:24.047Z,1006.88
2022-11-19T19:14:47.063Z,1006.92
2022-11-19T19:21:06.990Z,1006.98
2022-11-19T19:27:30.005Z,1006.98
2022-11-19T19:33:50.053Z,1007
2022-11-19T19:55:44.000Z,1006.92
2022-11-19T20:02:07.016Z,1006.9
2022-11-19T20:08:26.977Z,1006.96
2022-11-19T20:14:50.059Z,1007
2022-11-19T20:21:10.059Z,1007.04
2022-11-19T20:27:32.979Z,1007.06
2022-11-19T20:33:53.000Z,1007.13
2022-11-19T20:40:16.056Z,1007.13
2022-11-19T20:46:36.033Z,1007.19
2022-11-19T20:52:58.996Z,1007.17
2022-11-19T20:59:19.730Z,1007.13
2022-11-19T21:05:42.043Z,1007.15
2022-11-19T21:12:02.014Z,1007.12
2022-11-19T21:18:24.973Z,1007.13
2022-11-19T21:24:45.023Z,1007.12
2022-11-19T21:31:08.040Z,1007.13
2022-11-19T21:37:28.001Z,1007.1
2022-11-19T21:43:50.993Z,1007.06
2022-11-19T21:50:11.026Z,1007.08
2022-11-19T21:56:38.424Z,1007.04
2022-11-19T22:02:53.992Z,1007
2022-11-19T22:09:17.030Z,1007
2022-11-19T22:15:37.020Z,1007.02
2022-11-19T22:21:59.988Z,1007.02
2022-11-19T22:28:20.043Z,1007
2022-11-19T22:34:43.012Z,1007.02
2022-11-19T22:41:03.012Z,1006.96
2022-11-19T22:47:26.127Z,1006.92
2022-11-19T22:53:45.962Z,1006.9
2022-11-19T23:00:09.004Z,1006.82
2022-11-19T23:23:06.043Z,1006.7
2022-11-19T23:29:25.961Z,1006.74
2022-11-19T23:35:49.014Z,1006.76
2022-11-19T23:42:09.019Z,1006.74
2022-11-19T23:48:32.000Z,1006.78
2022-11-19T23:54:52.013Z,1006.82
